sensor_id;sensor_type;location;lat;lon;timestamp;P1;durP1;ratioP1;P2;durP2;ratioP2
26181;SDS011;13927;51.534;11.866;2023-06-24T00:01:37;35.17;;;17.00;;
26181;SDS011;13927;51.534;11.866;2023-06-24T00:04:04;23.25;;;17.23;;
26181;SDS011;13927;51.534;11.866;2023-06-24T00:06:30;25.00;;;17.58;;
26181;SDS011;13927;51.534;11.866;2023-06-24T00:08:56;35.00;;;18.40;;
26181;SDS011;13927;51.534;11.866;2023-06-24T00:11:26;28.77;;;18.20;;
26181;SDS011;13927;51.534;11.866;2023-06-24T00:13:54;31.65;;;17.83;;
26181;SDS011;13927;51.534;11.866;2023-06-24T00:16:20;28.20;;;19.15;;
26181;SDS011;13927;51.534;11.866;2023-06-24T00:18:51;49.80;;;16.73;;
26181;SDS011;13927;51.534;11.866;2023-06-24T00:21:25;36.58;;;15.65;;
26181;SDS011;13927;51.534;11.866;2023-06-24T00:23:58;31.27;;;15.93;;
26181;SDS011;13927;51.534;11.866;2023-06-24T00:26:26;23.80;;;15.93;;
26181;SDS011;13927;51.534;11.866;2023-06-24T00:28:52;27.35;;;15.82;;
26181;SDS011;13927;51.534;11.866;2023-06-24T00:31:18;33.55;;;16.98;;
26181;SDS011;13927;51.534;11.866;2023-06-24T00:33:45;28.38;;;16.35;;
26181;SDS011;13927;51.534;11.866;2023-06-24T00:36:11;39.47;;;15.95;;
26181;SDS011;13927;51.534;11.866;2023-06-24T00:38:39;27.08;;;14.30;;
26181;SDS011;13927;51.534;11.866;2023-06-24T00:41:07;24.65;;;15.77;;
26181;SDS011;13927;51.534;11.866;2023-06-24T00:43:33;34.10;;;16.48;;
26181;SDS011;13927;51.534;11.866;2023-06-24T00:45:59;31.88;;;16.65;;
26181;SDS011;13927;51.534;11.866;2023-06-24T00:48:25;27.67;;;15.63;;
26181;SDS011;13927;51.534;11.866;2023-06-24T00:50:51;22.52;;;15.63;;
26181;SDS011;13927;51.534;11.866;2023-06-24T00:53:17;36.42;;;15.30;;
26181;SDS011;13927;51.534;11.866;2023-06-24T00:55:46;23.92;;;15.00;;
26181;SDS011;13927;51.534;11.866;2023-06-24T00:58:13;23.60;;;15.13;;
26181;SDS011;13927;51.534;11.866;2023-06-24T01:00:42;29.63;;;16.98;;
26181;SDS011;13927;51.534;11.866;2023-06-24T01:03:11;25.95;;;16.20;;
26181;SDS011;13927;51.534;11.866;2023-06-24T01:05:38;21.80;;;14.65;;
26181;SDS011;13927;51.534;11.866;2023-06-24T01:08:08;26.40;;;16.13;;
26181;SDS011;13927;51.534;11.866;2023-06-24T01:10:40;22.50;;;16.42;;
26181;SDS011;13927;51.534;11.866;2023-06-24T01:13:09;25.33;;;16.75;;
26181;SDS011;13927;51.534;11.866;2023-06-24T01:15:37;18.45;;;15.52;;
26181;SDS011;13927;51.534;11.866;2023-06-24T01:18:07;22.35;;;16.08;;
26181;SDS011;13927;51.534;11.866;2023-06-24T01:21:09;27.75;;;15.65;;
26181;SDS011;13927;51.534;11.866;2023-06-24T01:26:49;25.38;;;14.95;;
26181;SDS011;13927;51.534;11.866;2023-06-24T01:29:34;25.00;;;14.27;;
26181;SDS011;13927;51.534;11.866;2023-06-24T01:32:57;27.73;;;15.05;;
26181;SDS011;13927;51.534;11.866;2023-06-24T01:35:30;31.85;;;16.83;;
26181;SDS011;13927;51.534;11.866;2023-06-24T01:37:59;22.05;;;14.50;;
26181;SDS011;13927;51.534;11.866;2023-06-24T01:40:34;22.25;;;15.15;;
26181;SDS011;13927;51.534;11.866;2023-06-24T01:43:05;22.70;;;13.20;;
26181;SDS011;13927;51.534;11.866;2023-06-24T01:45:37;22.92;;;14.48;;
26181;SDS011;13927;51.534;11.866;2023-06-24T01:48:25;23.63;;;15.27;;
26181;SDS011;13927;51.534;11.866;2023-06-24T01:51:01;25.33;;;14.00;;
26181;SDS011;13927;51.534;11.866;2023-06-24T01:53:28;21.80;;;12.50;;
26181;SDS011;13927;51.534;11.866;2023-06-24T01:56:00;17.63;;;11.35;;
26181;SDS011;13927;51.534;11.866;2023-06-24T01:58:28;21.10;;;13.52;;
26181;SDS011;13927;51.534;11.866;2023-06-24T02:00:56;27.48;;;14.68;;
26181;SDS011;13927;51.534;11.866;2023-06-24T02:03:24;24.08;;;13.60;;
26181;SDS011;13927;51.534;11.866;2023-06-24T02:05:52;20.60;;;13.95;;
26181;SDS011;13927;51.534;11.866;2023-06-24T02:08:20;22.67;;;15.73;;
26181;SDS011;13927;51.534;11.866;2023-06-24T02:10:48;28.30;;;16.02;;
26181;SDS011;13927;51.534;11.866;2023-06-24T02:13:16;25.55;;;15.75;;
26181;SDS011;13927;51.534;11.866;2023-06-24T02:15:42;25.65;;;14.63;;
26181;SDS011;13927;51.534;11.866;2023-06-24T02:18:09;25.98;;;14.43;;
26181;SDS011;13927;51.534;11.866;2023-06-24T02:20:36;22.17;;;14.25;;
26181;SDS011;13927;51.534;11.866;2023-06-24T02:23:04;20.50;;;13.57;;
26181;SDS011;13927;51.534;11.866;2023-06-24T02:25:33;23.00;;;13.85;;
26181;SDS011;13927;51.534;11.866;2023-06-24T02:28:04;32.25;;;14.90;;
26181;SDS011;13927;51.534;11.866;2023-06-24T02:30:33;23.73;;;14.85;;
26181;SDS011;13927;51.534;11.866;2023-06-24T02:33:01;25.88;;;15.40;;
26181;SDS011;13927;51.534;11.866;2023-06-24T02:35:27;28.52;;;15.68;;
26181;SDS011;13927;51.534;11.866;2023-06-24T02:37:53;25.73;;;15.30;;
26181;SDS011;13927;51.534;11.866;2023-06-24T02:40:18;22.55;;;13.68;;
26181;SDS011;13927;51.534;11.866;2023-06-24T02:42:45;29.33;;;14.20;;
26181;SDS011;13927;51.534;11.866;2023-06-24T02:45:11;36.20;;;13.93;;
26181;SDS011;13927;51.534;11.866;2023-06-24T02:47:37;47.15;;;13.02;;
26181;SDS011;13927;51.534;11.866;2023-06-24T02:50:04;49.53;;;12.40;;
26181;SDS011;13927;51.534;11.866;2023-06-24T02:52:32;51.10;;;11.48;;
26181;SDS011;13927;51.534;11.866;2023-06-24T02:55:01;48.63;;;11.32;;
26181;SDS011;13927;51.534;11.866;2023-06-24T02:57:28;38.33;;;12.15;;
26181;SDS011;13927;51.534;11.866;2023-06-24T02:59:54;23.63;;;11.10;;
26181;SDS011;13927;51.534;11.866;2023-06-24T03:02:20;22.83;;;13.73;;
26181;SDS011;13927;51.534;11.866;2023-06-24T03:04:50;31.73;;;14.80;;
26181;SDS011;13927;51.534;11.866;2023-06-24T03:07:19;25.52;;;14.15;;
26181;SDS011;13927;51.534;11.866;2023-06-24T03:09:46;25.00;;;16.10;;
26181;SDS011;13927;51.534;11.866;2023-06-24T03:12:11;20.55;;;15.23;;
26181;SDS011;13927;51.534;11.866;2023-06-24T03:14:37;23.60;;;13.55;;
26181;SDS011;13927;51.534;11.866;2023-06-24T03:17:03;29.48;;;10.38;;
26181;SDS011;13927;51.534;11.866;2023-06-24T03:19:29;30.27;;;12.95;;
26181;SDS011;13927;51.534;11.866;2023-06-24T03:21:55;22.63;;;12.88;;
26181;SDS011;13927;51.534;11.866;2023-06-24T03:24:20;23.45;;;14.90;;
26181;SDS011;13927;51.534;11.866;2023-06-24T03:26:46;25.90;;;16.25;;
26181;SDS011;13927;51.534;11.866;2023-06-24T03:29:13;27.48;;;16.35;;
26181;SDS011;13927;51.534;11.866;2023-06-24T03:31:44;26.20;;;17.15;;
26181;SDS011;13927;51.534;11.866;2023-06-24T03:34:14;28.13;;;17.98;;
26181;SDS011;13927;51.534;11.866;2023-06-24T03:36:41;31.88;;;17.45;;
26181;SDS011;13927;51.534;11.866;2023-06-24T03:39:08;22.55;;;16.33;;
26181;SDS011;13927;51.534;11.866;2023-06-24T03:41:33;26.40;;;17.13;;
26181;SDS011;13927;51.534;11.866;2023-06-24T03:44:00;27.17;;;16.77;;
26181;SDS011;13927;51.534;11.866;2023-06-24T03:46:26;26.77;;;17.08;;
26181;SDS011;13927;51.534;11.866;2023-06-24T03:48:53;26.33;;;17.05;;
26181;SDS011;13927;51.534;11.866;2023-06-24T03:51:31;21.65;;;16.08;;
26181;SDS011;13927;51.534;11.866;2023-06-24T03:53:57;27.45;;;16.27;;
26181;SDS011;13927;51.534;11.866;2023-06-24T03:56:23;25.77;;;16.23;;
26181;SDS011;13927;51.534;11.866;2023-06-24T03:58:49;33.92;;;17.63;;
26181;SDS011;13927;51.534;11.866;2023-06-24T04:01:15;27.88;;;16.02;;
26181;SDS011;13927;51.534;11.866;2023-06-24T04:03:45;30.95;;;14.70;;
26181;SDS011;13927;51.534;11.866;2023-06-24T04:06:11;28.05;;;15.32;;
26181;SDS011;13927;51.534;11.866;2023-06-24T04:08:37;32.60;;;15.60;;
26181;SDS011;13927;51.534;11.866;2023-06-24T04:11:10;33.60;;;16.20;;
26181;SDS011;13927;51.534;11.866;2023-06-24T04:13:42;31.75;;;16.80;;
26181;SDS011;13927;51.534;11.866;2023-06-24T04:16:08;30.50;;;16.13;;
26181;SDS011;13927;51.534;11.866;2023-06-24T04:18:35;34.55;;;16.40;;
26181;SDS011;13927;51.534;11.866;2023-06-24T04:21:05;30.65;;;17.63;;
26181;SDS011;13927;51.534;11.866;2023-06-24T04:23:31;28.73;;;17.75;;
26181;SDS011;13927;51.534;11.866;2023-06-24T04:25:58;36.42;;;17.17;;
26181;SDS011;13927;51.534;11.866;2023-06-24T04:28:24;33.63;;;17.80;;
26181;SDS011;13927;51.534;11.866;2023-06-24T04:30:51;25.67;;;15.98;;
26181;SDS011;13927;51.534;11.866;2023-06-24T04:33:21;29.38;;;17.35;;
26181;SDS011;13927;51.534;11.866;2023-06-24T04:35:48;30.00;;;17.85;;
26181;SDS011;13927;51.534;11.866;2023-06-24T04:38:16;25.88;;;15.68;;
26181;SDS011;13927;51.534;11.866;2023-06-24T04:40:44;30.70;;;15.45;;
26181;SDS011;13927;51.534;11.866;2023-06-24T04:43:10;26.85;;;15.52;;
26181;SDS011;13927;51.534;11.866;2023-06-24T04:45:40;26.83;;;16.02;;
26181;SDS011;13927;51.534;11.866;2023-06-24T04:48:07;22.95;;;14.90;;
26181;SDS011;13927;51.534;11.866;2023-06-24T04:50:36;24.35;;;15.50;;
26181;SDS011;13927;51.534;11.866;2023-06-24T04:53:06;33.63;;;16.98;;
26181;SDS011;13927;51.534;11.866;2023-06-24T04:55:33;25.77;;;14.82;;
26181;SDS011;13927;51.534;11.866;2023-06-24T04:58:02;28.52;;;15.30;;
26181;SDS011;13927;51.534;11.866;2023-06-24T05:00:32;23.75;;;14.60;;
26181;SDS011;13927;51.534;11.866;2023-06-24T05:03:08;17.60;;;13.75;;
26181;SDS011;13927;51.534;11.866;2023-06-24T05:05:41;23.08;;;12.85;;
26181;SDS011;13927;51.534;11.866;2023-06-24T05:08:17;28.67;;;14.48;;
26181;SDS011;13927;51.534;11.866;2023-06-24T05:10:43;18.30;;;12.15;;
26181;SDS011;13927;51.534;11.866;2023-06-24T05:13:19;18.75;;;12.40;;
26181;SDS011;13927;51.534;11.866;2023-06-24T05:15:49;20.90;;;12.63;;
26181;SDS011;13927;51.534;11.866;2023-06-24T05:18:37;17.10;;;11.95;;
26181;SDS011;13927;51.534;11.866;2023-06-24T05:21:10;15.05;;;11.40;;
26181;SDS011;13927;51.534;11.866;2023-06-24T05:24:41;19.45;;;12.05;;
26181;SDS011;13927;51.534;11.866;2023-06-24T05:27:12;15.70;;;11.88;;
26181;SDS011;13927;51.534;11.866;2023-06-24T05:29:40;18.23;;;11.63;;
26181;SDS011;13927;51.534;11.866;2023-06-24T05:32:11;19.02;;;11.10;;
26181;SDS011;13927;51.534;11.866;2023-06-24T05:34:38;14.88;;;11.48;;
26181;SDS011;13927;51.534;11.866;2023-06-24T05:37:18;14.63;;;11.63;;
26181;SDS011;13927;51.534;11.866;2023-06-24T05:43:10;21.23;;;12.40;;
26181;SDS011;13927;51.534;11.866;2023-06-24T05:46:00;13.48;;;11.40;;
26181;SDS011;13927;51.534;11.866;2023-06-24T05:48:58;16.80;;;11.88;;
26181;SDS011;13927;51.534;11.866;2023-06-24T05:51:41;18.80;;;12.18;;
26181;SDS011;13927;51.534;11.866;2023-06-24T05:54:16;16.83;;;12.00;;
26181;SDS011;13927;51.534;11.866;2023-06-24T05:57:26;17.80;;;12.18;;
26181;SDS011;13927;51.534;11.866;2023-06-24T06:00:30;15.55;;;11.23;;
26181;SDS011;13927;51.534;11.866;2023-06-24T06:02:56;13.52;;;10.80;;
26181;SDS011;13927;51.534;11.866;2023-06-24T06:05:23;16.88;;;11.82;;
26181;SDS011;13927;51.534;11.866;2023-06-24T06:07:49;16.10;;;11.80;;
26181;SDS011;13927;51.534;11.866;2023-06-24T06:10:15;16.20;;;12.07;;
26181;SDS011;13927;51.534;11.866;2023-06-24T06:12:43;17.08;;;12.40;;
26181;SDS011;13927;51.534;11.866;2023-06-24T06:15:09;14.45;;;11.98;;
26181;SDS011;13927;51.534;11.866;2023-06-24T06:17:37;14.30;;;12.05;;
26181;SDS011;13927;51.534;11.866;2023-06-24T06:20:04;16.25;;;12.20;;
26181;SDS011;13927;51.534;11.866;2023-06-24T06:22:30;15.45;;;12.30;;
26181;SDS011;13927;51.534;11.866;2023-06-24T06:25:02;15.43;;;12.27;;
26181;SDS011;13927;51.534;11.866;2023-06-24T06:27:30;17.25;;;11.10;;
26181;SDS011;13927;51.534;11.866;2023-06-24T06:29:56;12.63;;;11.35;;
26181;SDS011;13927;51.534;11.866;2023-06-24T06:32:23;14.90;;;11.73;;
26181;SDS011;13927;51.534;11.866;2023-06-24T06:34:49;15.38;;;11.15;;
26181;SDS011;13927;51.534;11.866;2023-06-24T06:37:15;16.30;;;11.43;;
26181;SDS011;13927;51.534;11.866;2023-06-24T06:39:41;15.20;;;11.10;;
26181;SDS011;13927;51.534;11.866;2023-06-24T06:42:08;14.68;;;11.45;;
26181;SDS011;13927;51.534;11.866;2023-06-24T06:44:35;15.23;;;11.52;;
26181;SDS011;13927;51.534;11.866;2023-06-24T06:47:01;20.77;;;11.25;;
26181;SDS011;13927;51.534;11.866;2023-06-24T06:49:28;12.50;;;11.20;;
26181;SDS011;13927;51.534;11.866;2023-06-24T06:51:55;14.30;;;10.85;;
26181;SDS011;13927;51.534;11.866;2023-06-24T06:54:22;13.75;;;11.18;;
26181;SDS011;13927;51.534;11.866;2023-06-24T06:56:49;17.02;;;10.88;;
26181;SDS011;13927;51.534;11.866;2023-06-24T06:59:16;13.02;;;11.65;;
26181;SDS011;13927;51.534;11.866;2023-06-24T07:01:44;13.48;;;10.88;;
26181;SDS011;13927;51.534;11.866;2023-06-24T07:04:10;13.98;;;10.98;;
26181;SDS011;13927;51.534;11.866;2023-06-24T07:06:36;11.13;;;10.02;;
26181;SDS011;13927;51.534;11.866;2023-06-24T07:09:03;11.18;;;10.05;;
26181;SDS011;13927;51.534;11.866;2023-06-24T07:11:30;11.98;;;10.77;;
26181;SDS011;13927;51.534;11.866;2023-06-24T07:13:56;11.88;;;10.65;;
26181;SDS011;13927;51.534;11.866;2023-06-24T07:16:23;10.68;;;9.38;;
26181;SDS011;13927;51.534;11.866;2023-06-24T07:18:49;10.00;;;8.98;;
26181;SDS011;13927;51.534;11.866;2023-06-24T07:21:16;12.70;;;9.63;;
26181;SDS011;13927;51.534;11.866;2023-06-24T07:23:48;9.82;;;8.82;;
26181;SDS011;13927;51.534;11.866;2023-06-24T07:26:16;12.13;;;9.80;;
26181;SDS011;13927;51.534;11.866;2023-06-24T07:28:44;13.10;;;10.38;;
26181;SDS011;13927;51.534;11.866;2023-06-24T07:31:13;10.95;;;8.95;;
26181;SDS011;13927;51.534;11.866;2023-06-24T07:33:42;14.82;;;9.13;;
26181;SDS011;13927;51.534;11.866;2023-06-24T07:38:43;11.52;;;8.75;;
26181;SDS011;13927;51.534;11.866;2023-06-24T07:41:12;9.40;;;7.75;;
26181;SDS011;13927;51.534;11.866;2023-06-24T07:43:40;9.20;;;7.10;;
26181;SDS011;13927;51.534;11.866;2023-06-24T07:46:09;8.18;;;7.35;;
26181;SDS011;13927;51.534;11.866;2023-06-24T07:48:38;9.57;;;7.18;;
26181;SDS011;13927;51.534;11.866;2023-06-24T07:51:08;9.98;;;6.88;;
26181;SDS011;13927;51.534;11.866;2023-06-24T07:53:40;12.68;;;7.55;;
26181;SDS011;13927;51.534;11.866;2023-06-24T07:56:11;9.50;;;7.50;;
26181;SDS011;13927;51.534;11.866;2023-06-24T07:58:39;7.70;;;6.88;;
26181;SDS011;13927;51.534;11.866;2023-06-24T08:01:09;8.85;;;7.13;;
26181;SDS011;13927;51.534;11.866;2023-06-24T08:03:37;9.32;;;6.22;;
26181;SDS011;13927;51.534;11.866;2023-06-24T08:06:05;7.90;;;6.30;;
26181;SDS011;13927;51.534;11.866;2023-06-24T08:08:33;14.77;;;6.80;;
26181;SDS011;13927;51.534;11.866;2023-06-24T08:11:02;15.00;;;6.40;;
26181;SDS011;13927;51.534;11.866;2023-06-24T08:13:34;7.50;;;6.07;;
26181;SDS011;13927;51.534;11.866;2023-06-24T08:16:04;10.65;;;6.38;;
26181;SDS011;13927;51.534;11.866;2023-06-24T08:18:31;7.40;;;6.25;;
26181;SDS011;13927;51.534;11.866;2023-06-24T08:20:59;6.13;;;5.55;;
26181;SDS011;13927;51.534;11.866;2023-06-24T08:23:25;6.65;;;5.93;;
26181;SDS011;13927;51.534;11.866;2023-06-24T08:25:51;8.50;;;5.88;;
26181;SDS011;13927;51.534;11.866;2023-06-24T08:28:17;9.02;;;5.70;;
26181;SDS011;13927;51.534;11.866;2023-06-24T08:30:44;7.22;;;5.65;;
26181;SDS011;13927;51.534;11.866;2023-06-24T08:33:19;6.97;;;5.65;;
26181;SDS011;13927;51.534;11.866;2023-06-24T08:35:49;5.63;;;5.13;;
26181;SDS011;13927;51.534;11.866;2023-06-24T08:38:18;6.88;;;5.60;;
26181;SDS011;13927;51.534;11.866;2023-06-24T08:40:44;9.07;;;6.30;;
26181;SDS011;13927;51.534;11.866;2023-06-24T08:43:13;7.20;;;5.78;;
26181;SDS011;13927;51.534;11.866;2023-06-24T08:45:39;5.97;;;5.10;;
26181;SDS011;13927;51.534;11.866;2023-06-24T08:48:05;4.97;;;4.47;;
26181;SDS011;13927;51.534;11.866;2023-06-24T08:50:36;6.20;;;4.88;;
26181;SDS011;13927;51.534;11.866;2023-06-24T08:53:12;8.02;;;5.30;;
26181;SDS011;13927;51.534;11.866;2023-06-24T08:55:45;5.72;;;5.13;;
26181;SDS011;13927;51.534;11.866;2023-06-24T08:58:13;5.43;;;4.38;;
26181;SDS011;13927;51.534;11.866;2023-06-24T09:00:40;6.45;;;5.05;;
26181;SDS011;13927;51.534;11.866;2023-06-24T09:03:09;8.52;;;5.10;;
26181;SDS011;13927;51.534;11.866;2023-06-24T09:05:43;5.88;;;5.22;;
26181;SDS011;13927;51.534;11.866;2023-06-24T09:08:10;5.97;;;5.25;;
26181;SDS011;13927;51.534;11.866;2023-06-24T09:10:37;10.50;;;5.72;;
26181;SDS011;13927;51.534;11.866;2023-06-24T09:13:04;7.13;;;5.35;;
26181;SDS011;13927;51.534;11.866;2023-06-24T09:15:34;7.80;;;5.43;;
26181;SDS011;13927;51.534;11.866;2023-06-24T09:18:06;8.43;;;4.85;;
26181;SDS011;13927;51.534;11.866;2023-06-24T09:20:36;5.83;;;4.73;;
26181;SDS011;13927;51.534;11.866;2023-06-24T09:23:10;8.13;;;5.10;;
26181;SDS011;13927;51.534;11.866;2023-06-24T09:25:37;5.75;;;4.93;;
26181;SDS011;13927;51.534;11.866;2023-06-24T09:28:04;6.45;;;4.95;;
26181;SDS011;13927;51.534;11.866;2023-06-24T09:30:31;7.50;;;4.88;;
26181;SDS011;13927;51.534;11.866;2023-06-24T09:32:58;7.82;;;4.93;;
26181;SDS011;13927;51.534;11.866;2023-06-24T09:35:26;9.02;;;4.57;;
26181;SDS011;13927;51.534;11.866;2023-06-24T09:37:57;6.97;;;4.50;;
26181;SDS011;13927;51.534;11.866;2023-06-24T09:40:27;10.20;;;4.60;;
26181;SDS011;13927;51.534;11.866;2023-06-24T09:42:55;5.78;;;4.20;;
26181;SDS011;13927;51.534;11.866;2023-06-24T09:45:28;5.22;;;4.10;;
26181;SDS011;13927;51.534;11.866;2023-06-24T09:47:56;5.60;;;5.05;;
26181;SDS011;13927;51.534;11.866;2023-06-24T09:50:26;6.95;;;4.45;;
26181;SDS011;13927;51.534;11.866;2023-06-24T09:52:53;7.55;;;4.50;;
26181;SDS011;13927;51.534;11.866;2023-06-24T09:55:23;7.43;;;5.90;;
26181;SDS011;13927;51.534;11.866;2023-06-24T09:57:52;6.25;;;5.43;;
26181;SDS011;13927;51.534;11.866;2023-06-24T10:00:21;9.55;;;5.45;;
26181;SDS011;13927;51.534;11.866;2023-06-24T10:02:52;7.22;;;4.78;;
26181;SDS011;13927;51.534;11.866;2023-06-24T10:05:21;5.30;;;4.70;;
26181;SDS011;13927;51.534;11.866;2023-06-24T10:07:49;6.82;;;4.00;;
26181;SDS011;13927;51.534;11.866;2023-06-24T10:10:17;7.68;;;4.35;;
26181;SDS011;13927;51.534;11.866;2023-06-24T10:12:45;5.05;;;4.40;;
26181;SDS011;13927;51.534;11.866;2023-06-24T10:15:12;4.70;;;4.13;;
26181;SDS011;13927;51.534;11.866;2023-06-24T10:17:41;5.72;;;4.65;;
26181;SDS011;13927;51.534;11.866;2023-06-24T10:20:07;5.07;;;4.60;;
26181;SDS011;13927;51.534;11.866;2023-06-24T10:22:34;5.25;;;4.07;;
26181;SDS011;13927;51.534;11.866;2023-06-24T10:25:02;6.40;;;4.47;;
26181;SDS011;13927;51.534;11.866;2023-06-24T10:27:38;5.43;;;4.38;;
26181;SDS011;13927;51.534;11.866;2023-06-24T10:30:05;5.20;;;3.97;;
26181;SDS011;13927;51.534;11.866;2023-06-24T10:32:39;5.13;;;4.60;;
26181;SDS011;13927;51.534;11.866;2023-06-24T10:35:23;8.45;;;4.00;;
26181;SDS011;13927;51.534;11.866;2023-06-24T10:37:56;6.07;;;4.22;;
26181;SDS011;13927;51.534;11.866;2023-06-24T10:40:39;4.38;;;3.97;;
26181;SDS011;13927;51.534;11.866;2023-06-24T10:45:53;4.57;;;3.47;;
26181;SDS011;13927;51.534;11.866;2023-06-24T10:48:26;5.13;;;4.50;;
26181;SDS011;13927;51.534;11.866;2023-06-24T10:50:52;6.85;;;3.65;;
26181;SDS011;13927;51.534;11.866;2023-06-24T10:53:19;5.68;;;3.88;;
26181;SDS011;13927;51.534;11.866;2023-06-24T10:55:46;4.55;;;4.15;;
26181;SDS011;13927;51.534;11.866;2023-06-24T10:58:13;5.95;;;4.35;;
26181;SDS011;13927;51.534;11.866;2023-06-24T11:00:41;5.55;;;3.88;;
26181;SDS011;13927;51.534;11.866;2023-06-24T11:03:13;6.72;;;3.70;;
26181;SDS011;13927;51.534;11.866;2023-06-24T11:05:41;4.68;;;3.85;;
26181;SDS011;13927;51.534;11.866;2023-06-24T11:08:10;4.75;;;4.20;;
26181;SDS011;13927;51.534;11.866;2023-06-24T11:10:43;4.45;;;3.78;;
26181;SDS011;13927;51.534;11.866;2023-06-24T11:13:15;4.72;;;4.10;;
26181;SDS011;13927;51.534;11.866;2023-06-24T11:15:46;6.22;;;4.35;;
26181;SDS011;13927;51.534;11.866;2023-06-24T11:18:12;5.07;;;4.47;;
26181;SDS011;13927;51.534;11.866;2023-06-24T11:20:38;5.35;;;4.60;;
26181;SDS011;13927;51.534;11.866;2023-06-24T11:23:07;4.97;;;4.22;;
26181;SDS011;13927;51.534;11.866;2023-06-24T11:25:39;4.30;;;3.92;;
26181;SDS011;13927;51.534;11.866;2023-06-24T11:28:19;8.15;;;4.78;;
26181;SDS011;13927;51.534;11.866;2023-06-24T11:30:45;8.95;;;4.03;;
26181;SDS011;13927;51.534;11.866;2023-06-24T11:33:12;4.70;;;4.20;;
26181;SDS011;13927;51.534;11.866;2023-06-24T11:35:38;10.00;;;4.30;;
26181;SDS011;13927;51.534;11.866;2023-06-24T11:38:04;5.45;;;4.10;;
26181;SDS011;13927;51.534;11.866;2023-06-24T11:40:31;5.65;;;4.00;;
26181;SDS011;13927;51.534;11.866;2023-06-24T11:42:59;5.82;;;4.13;;
26181;SDS011;13927;51.534;11.866;2023-06-24T11:45:28;4.80;;;4.05;;
26181;SDS011;13927;51.534;11.866;2023-06-24T11:48:01;4.65;;;3.72;;
26181;SDS011;13927;51.534;11.866;2023-06-24T11:50:32;6.88;;;4.45;;
26181;SDS011;13927;51.534;11.866;2023-06-24T11:53:00;5.80;;;4.28;;
26181;SDS011;13927;51.534;11.866;2023-06-24T11:55:27;4.63;;;4.10;;
26181;SDS011;13927;51.534;11.866;2023-06-24T12:00:30;7.40;;;4.80;;
26181;SDS011;13927;51.534;11.866;2023-06-24T12:03:06;4.50;;;4.10;;
26181;SDS011;13927;51.534;11.866;2023-06-24T12:05:35;5.25;;;4.07;;
26181;SDS011;13927;51.534;11.866;2023-06-24T12:08:05;5.75;;;4.05;;
26181;SDS011;13927;51.534;11.866;2023-06-24T12:10:34;4.85;;;3.78;;
26181;SDS011;13927;51.534;11.866;2023-06-24T12:13:03;5.53;;;3.58;;
26181;SDS011;13927;51.534;11.866;2023-06-24T12:15:34;4.03;;;3.50;;
26181;SDS011;13927;51.534;11.866;2023-06-24T12:18:00;5.15;;;4.15;;
26181;SDS011;13927;51.534;11.866;2023-06-24T12:20:28;5.80;;;4.22;;
26181;SDS011;13927;51.534;11.866;2023-06-24T12:22:55;4.43;;;3.92;;
26181;SDS011;13927;51.534;11.866;2023-06-24T12:25:21;4.93;;;4.13;;
26181;SDS011;13927;51.534;11.866;2023-06-24T12:27:48;5.03;;;3.75;;
26181;SDS011;13927;51.534;11.866;2023-06-24T12:30:16;7.97;;;3.28;;
26181;SDS011;13927;51.534;11.866;2023-06-24T12:32:42;4.25;;;3.63;;
26181;SDS011;13927;51.534;11.866;2023-06-24T12:35:09;3.70;;;3.40;;
26181;SDS011;13927;51.534;11.866;2023-06-24T12:37:35;5.00;;;3.45;;
26181;SDS011;13927;51.534;11.866;2023-06-24T12:40:02;3.40;;;3.08;;
26181;SDS011;13927;51.534;11.866;2023-06-24T12:42:29;5.03;;;3.35;;
26181;SDS011;13927;51.534;11.866;2023-06-24T12:44:55;4.35;;;3.03;;
26181;SDS011;13927;51.534;11.866;2023-06-24T12:47:21;4.28;;;3.42;;
26181;SDS011;13927;51.534;11.866;2023-06-24T12:49:48;4.30;;;3.50;;
26181;SDS011;13927;51.534;11.866;2023-06-24T12:52:15;3.72;;;3.28;;
26181;SDS011;13927;51.534;11.866;2023-06-24T12:54:41;5.35;;;2.95;;
26181;SDS011;13927;51.534;11.866;2023-06-24T12:57:07;4.03;;;3.38;;
26181;SDS011;13927;51.534;11.866;2023-06-24T12:59:33;5.40;;;3.38;;
26181;SDS011;13927;51.534;11.866;2023-06-24T13:02:00;3.53;;;3.13;;
26181;SDS011;13927;51.534;11.866;2023-06-24T13:04:26;6.70;;;3.50;;
26181;SDS011;13927;51.534;11.866;2023-06-24T13:06:52;4.47;;;3.53;;
26181;SDS011;13927;51.534;11.866;2023-06-24T13:09:21;4.20;;;3.55;;
26181;SDS011;13927;51.534;11.866;2023-06-24T13:11:50;7.88;;;3.67;;
26181;SDS011;13927;51.534;11.866;2023-06-24T13:14:19;6.80;;;3.47;;
26181;SDS011;13927;51.534;11.866;2023-06-24T13:16:46;8.57;;;4.10;;
26181;SDS011;13927;51.534;11.866;2023-06-24T13:19:12;6.13;;;3.53;;
26181;SDS011;13927;51.534;11.866;2023-06-24T13:21:38;6.05;;;3.53;;
26181;SDS011;13927;51.534;11.866;2023-06-24T13:24:06;3.85;;;3.53;;
26181;SDS011;13927;51.534;11.866;2023-06-24T13:26:33;3.80;;;3.25;;
26181;SDS011;13927;51.534;11.866;2023-06-24T13:28:59;4.10;;;3.55;;
26181;SDS011;13927;51.534;11.866;2023-06-24T13:31:25;3.65;;;3.35;;
26181;SDS011;13927;51.534;11.866;2023-06-24T13:33:51;4.03;;;3.42;;
26181;SDS011;13927;51.534;11.866;2023-06-24T13:36:31;5.25;;;3.60;;
26181;SDS011;13927;51.534;11.866;2023-06-24T13:39:05;3.40;;;3.00;;
26181;SDS011;13927;51.534;11.866;2023-06-24T13:41:33;4.35;;;3.60;;
26181;SDS011;13927;51.534;11.866;2023-06-24T13:44:03;4.65;;;3.40;;
26181;SDS011;13927;51.534;11.866;2023-06-24T13:46:31;3.90;;;3.50;;
26181;SDS011;13927;51.534;11.866;2023-06-24T13:48:58;4.55;;;3.40;;
26181;SDS011;13927;51.534;11.866;2023-06-24T13:51:24;4.95;;;3.55;;
26181;SDS011;13927;51.534;11.866;2023-06-24T13:53:51;3.55;;;3.25;;
26181;SDS011;13927;51.534;11.866;2023-06-24T13:56:22;4.47;;;3.15;;
26181;SDS011;13927;51.534;11.866;2023-06-24T13:58:50;3.58;;;3.17;;
26181;SDS011;13927;51.534;11.866;2023-06-24T14:01:18;5.57;;;3.22;;
26181;SDS011;13927;51.534;11.866;2023-06-24T14:03:46;3.70;;;3.22;;
26181;SDS011;13927;51.534;11.866;2023-06-24T14:06:14;5.85;;;3.50;;
26181;SDS011;13927;51.534;11.866;2023-06-24T14:08:42;4.70;;;3.60;;
26181;SDS011;13927;51.534;11.866;2023-06-24T14:11:08;4.40;;;3.38;;
26181;SDS011;13927;51.534;11.866;2023-06-24T14:13:34;7.28;;;3.80;;
26181;SDS011;13927;51.534;11.866;2023-06-24T14:16:01;4.88;;;3.47;;
26181;SDS011;13927;51.534;11.866;2023-06-24T14:18:29;6.28;;;3.63;;
26181;SDS011;13927;51.534;11.866;2023-06-24T14:20:59;5.40;;;3.40;;
26181;SDS011;13927;51.534;11.866;2023-06-24T14:23:28;5.50;;;3.50;;
26181;SDS011;13927;51.534;11.866;2023-06-24T14:25:56;4.10;;;3.40;;
26181;SDS011;13927;51.534;11.866;2023-06-24T14:28:22;4.07;;;3.67;;
26181;SDS011;13927;51.534;11.866;2023-06-24T14:30:48;3.78;;;3.22;;
26181;SDS011;13927;51.534;11.866;2023-06-24T14:33:14;4.65;;;3.38;;
26181;SDS011;13927;51.534;11.866;2023-06-24T14:35:40;4.05;;;3.25;;
26181;SDS011;13927;51.534;11.866;2023-06-24T14:38:06;4.90;;;3.42;;
26181;SDS011;13927;51.534;11.866;2023-06-24T14:40:33;6.70;;;3.65;;
26181;SDS011;13927;51.534;11.866;2023-06-24T14:42:59;4.43;;;4.03;;
26181;SDS011;13927;51.534;11.866;2023-06-24T14:45:26;5.55;;;3.97;;
26181;SDS011;13927;51.534;11.866;2023-06-24T14:47:52;3.90;;;3.38;;